sensor_id;sensor_type;location;lat;lon;timestamp;pressure;altitude;pressure_sealevel;temperature;humidity
77149;BME280;66122;47.130;16.844;2024-01-15T00:09:09;98497.97;;;-4.83;100.00
77149;BME280;66122;47.130;16.844;2024-01-15T00:19:12;98471.19;;;-4.76;100.00
77149;BME280;66122;47.130;16.844;2024-01-15T00:29:15;98478.97;;;-4.81;100.00
77149;BME280;66122;47.130;16.844;2024-01-15T00:39:17;98462.59;;;-4.80;100.00
77149;BME280;66122;47.130;16.844;2024-01-15T00:49:20;98448.91;;;-4.83;100.00
77149;BME280;66122;47.130;16.844;2024-01-15T00:59:23;98434.38;;;-4.92;100.00
77149;BME280;66122;47.130;16.844;2024-01-15T01:09:25;98383.56;;;-4.91;100.00
77149;BME280;66122;47.130;16.844;2024-01-15T01:19:28;98396.38;;;-4.84;100.00
77149;BME280;66122;47.130;16.844;2024-01-15T01:29:30;98376.50;;;-4.79;100.00
77149;BME280;66122;47.130;16.844;2024-01-15T01:39:33;98388.97;;;-5.09;100.00
77149;BME280;66122;47.130;16.844;2024-01-15T01:49:36;98394.44;;;-5.32;100.00
77149;BME280;66122;47.130;16.844;2024-01-15T01:59:40;98379.81;;;-5.30;100.00
77149;BME280;66122;47.130;16.844;2024-01-15T02:09:44;98367.09;;;-5.44;100.00
77149;BME280;66122;47.130;16.844;2024-01-15T02:19:49;98363.25;;;-5.16;100.00
77149;BME280;66122;47.130;16.844;2024-01-15T02:29:52;98356.34;;;-5.12;100.00
77149;BME280;66122;47.130;16.844;2024-01-15T02:39:56;98339.13;;;-5.13;100.00
77149;BME280;66122;47.130;16.844;2024-01-15T02:49:58;98307.34;;;-5.18;100.00
77149;BME280;66122;47.130;16.844;2024-01-15T03:00:01;98295.28;;;-5.16;100.00
77149;BME280;66122;47.130;16.844;2024-01-15T03:10:05;98299.59;;;-5.17;100.00
77149;BME280;66122;47.130;16.844;2024-01-15T03:20:09;98309.97;;;-5.20;100.00
77149;BME280;66122;47.130;16.844;2024-01-15T03:30:11;98328.28;;;-5.36;100.00
77149;BME280;66122;47.130;16.844;2024-01-15T03:40:14;98286.88;;;-5.29;100.00
77149;BME280;66122;47.130;16.844;2024-01-15T03:50:21;98307.44;;;-5.23;100.00
77149;BME280;66122;47.130;16.844;2024-01-15T04:00:23;98287.38;;;-5.05;100.00
77149;BME280;66122;47.130;16.844;2024-01-15T04:10:26;98286.34;;;-4.95;100.00
77149;BME280;66122;47.130;16.844;2024-01-15T04:20:28;98272.19;;;-4.72;100.00
77149;BME280;66122;47.130;16.844;2024-01-15T04:30:31;98282.75;;;-4.87;100.00
77149;BME280;66122;47.130;16.844;2024-01-15T04:40:33;98306.00;;;-4.85;100.00
77149;BME280;66122;47.130;16.844;2024-01-15T04:50:36;98291.81;;;-4.61;100.00
77149;BME280;66122;47.130;16.844;2024-01-15T05:00:39;98296.16;;;-4.63;100.00
77149;BME280;66122;47.130;16.844;2024-01-15T05:10:41;98300.56;;;-4.68;100.00
77149;BME280;66122;47.130;16.844;2024-01-15T05:20:44;98269.22;;;-4.52;100.00
77149;BME280;66122;47.130;16.844;2024-01-15T05:30:47;98270.50;;;-4.74;100.00
77149;BME280;66122;47.130;16.844;2024-01-15T05:40:49;98272.19;;;-4.73;100.00
77149;BME280;66122;47.130;16.844;2024-01-15T05:50:52;98271.16;;;-4.63;100.00
77149;BME280;66122;47.130;16.844;2024-01-15T06:00:54;98308.97;;;-4.57;100.00
77149;BME280;66122;47.130;16.844;2024-01-15T06:10:57;98314.56;;;-4.83;100.00
77149;BME280;66122;47.130;16.844;2024-01-15T06:21:03;98318.16;;;-4.92;100.00
77149;BME280;66122;47.130;16.844;2024-01-15T06:31:08;98349.03;;;-4.86;100.00
77149;BME280;66122;47.130;16.844;2024-01-15T06:41:11;98344.13;;;-5.01;100.00
77149;BME280;66122;47.130;16.844;2024-01-15T06:51:15;98367.63;;;-5.19;100.00
77149;BME280;66122;47.130;16.844;2024-01-15T07:01:20;98373.69;;;-5.22;100.00
77149;BME280;66122;47.130;16.844;2024-01-15T07:11:23;98379.16;;;-5.46;100.00
77149;BME280;66122;47.130;16.844;2024-01-15T07:21:26;98371.84;;;-5.15;100.00
77149;BME280;66122;47.130;16.844;2024-01-15T07:31:28;98395.28;;;-5.30;100.00
77149;BME280;66122;47.130;16.844;2024-01-15T07:41:31;98390.91;;;-4.65;100.00
77149;BME280;66122;47.130;16.844;2024-01-15T07:51:34;98375.91;;;-4.42;100.00
77149;BME280;66122;47.130;16.844;2024-01-15T08:01:37;98436.22;;;-4.43;100.00
77149;BME280;66122;47.130;16.844;2024-01-15T08:11:40;98383.19;;;-3.26;100.00
77149;BME280;66122;47.130;16.844;2024-01-15T08:21:44;98415.28;;;-2.20;100.00
77149;BME280;66122;47.130;16.844;2024-01-15T08:31:47;98406.84;;;-0.18;95.34
77149;BME280;66122;47.130;16.844;2024-01-15T08:41:50;98388.53;;;1.06;90.10
77149;BME280;66122;47.130;16.844;2024-01-15T08:51:52;98380.94;;;1.00;85.78
77149;BME280;66122;47.130;16.844;2024-01-15T09:01:55;98386.50;;;2.60;82.12
77149;BME280;66122;47.130;16.844;2024-01-15T09:12:00;98368.81;;;3.04;79.01
77149;BME280;66122;47.130;16.844;2024-01-15T09:22:03;98360.81;;;2.89;81.17
77149;BME280;66122;47.130;16.844;2024-01-15T09:32:06;98359.47;;;3.89;77.04
77149;BME280;66122;47.130;16.844;2024-01-15T09:42:10;98341.06;;;3.38;77.10
77149;BME280;66122;47.130;16.844;2024-01-15T09:52:14;98316.88;;;4.69;74.17
77149;BME280;66122;47.130;16.844;2024-01-15T10:02:18;98299.66;;;4.48;75.58
77149;BME280;66122;47.130;16.844;2024-01-15T10:12:24;98294.88;;;5.80;70.06
77149;BME280;66122;47.130;16.844;2024-01-15T10:22:30;98294.16;;;5.62;71.57
77149;BME280;66122;47.130;16.844;2024-01-15T10:32:32;98287.31;;;6.19;69.62
77149;BME280;66122;47.130;16.844;2024-01-15T10:42:35;98262.56;;;5.94;69.41
77149;BME280;66122;47.130;16.844;2024-01-15T10:52:39;98263.44;;;6.08;68.99
77149;BME280;66122;47.130;16.844;2024-01-15T11:02:52;98241.84;;;6.46;66.29
77149;BME280;66122;47.130;16.844;2024-01-15T11:12:58;98213.31;;;7.74;61.77
77149;BME280;66122;47.130;16.844;2024-01-15T11:23:00;98187.78;;;8.63;57.76
77149;BME280;66122;47.130;16.844;2024-01-15T11:33:03;98193.56;;;9.28;54.34
77149;BME280;66122;47.130;16.844;2024-01-15T11:43:07;98184.22;;;11.15;48.98
77149;BME280;66122;47.130;16.844;2024-01-15T11:53:16;98186.03;;;10.49;49.63
77149;BME280;66122;47.130;16.844;2024-01-15T12:03:21;98180.13;;;11.96;46.25
77149;BME280;66122;47.130;16.844;2024-01-15T12:13:25;98174.34;;;11.70;46.25
77149;BME280;66122;47.130;16.844;2024-01-15T12:23:27;98170.00;;;10.62;47.85
77149;BME280;66122;47.130;16.844;2024-01-15T12:33:30;98149.09;;;9.68;49.46
77149;BME280;66122;47.130;16.844;2024-01-15T12:43:32;98166.56;;;9.36;49.12
77149;BME280;66122;47.130;16.844;2024-01-15T12:53:35;98141.38;;;10.23;46.39
77149;BME280;66122;47.130;16.844;2024-01-15T13:03:40;98142.84;;;8.39;51.20
77149;BME280;66122;47.130;16.844;2024-01-15T13:13:44;98111.00;;;7.79;49.74
77149;BME280;66122;47.130;16.844;2024-01-15T13:23:47;98142.09;;;6.70;53.40
77149;BME280;66122;47.130;16.844;2024-01-15T13:33:50;98138.91;;;6.09;57.21
77149;BME280;66122;47.130;16.844;2024-01-15T13:43:54;98126.09;;;5.17;60.88
77149;BME280;66122;47.130;16.844;2024-01-15T13:53:57;98125.97;;;4.58;65.18
77149;BME280;66122;47.130;16.844;2024-01-15T14:04:00;98148.19;;;4.20;69.81
77149;BME280;66122;47.130;16.844;2024-01-15T14:14:04;98165.53;;;4.07;67.88
77149;BME280;66122;47.130;16.844;2024-01-15T14:24:11;98167.63;;;3.67;71.99
77149;BME280;66122;47.130;16.844;2024-01-15T14:34:14;98178.28;;;3.30;75.68
77149;BME280;66122;47.130;16.844;2024-01-15T14:44:18;98183.50;;;2.95;81.39
77149;BME280;66122;47.130;16.844;2024-01-15T14:54:21;98176.03;;;2.69;84.91
77149;BME280;66122;47.130;16.844;2024-01-15T15:04:26;98171.91;;;2.65;83.72
77149;BME280;66122;47.130;16.844;2024-01-15T15:14:29;98205.22;;;2.60;85.76
77149;BME280;66122;47.130;16.844;2024-01-15T15:24:32;98222.53;;;2.25;88.60
77149;BME280;66122;47.130;16.844;2024-01-15T15:34:35;98223.44;;;2.05;90.44
77149;BME280;66122;47.130;16.844;2024-01-15T15:44:38;98236.66;;;1.82;91.32
77149;BME280;66122;47.130;16.844;2024-01-15T15:54:47;98260.75;;;1.88;90.98
77149;BME280;66122;47.130;16.844;2024-01-15T16:04:49;98256.06;;;1.76;91.30
77149;BME280;66122;47.130;16.844;2024-01-15T16:14:53;98279.22;;;1.64;90.91
77149;BME280;66122;47.130;16.844;2024-01-15T16:24:55;98302.78;;;1.62;90.64
77149;BME280;66122;47.130;16.844;2024-01-15T16:35:03;98304.44;;;1.65;90.60
77149;BME280;66122;47.130;16.844;2024-01-15T16:45:06;98288.03;;;1.61;90.09
77149;BME280;66122;47.130;16.844;2024-01-15T16:55:09;98292.13;;;1.46;91.99
77149;BME280;66122;47.130;16.844;2024-01-15T17:05:11;98274.91;;;1.42;91.85
77149;BME280;66122;47.130;16.844;2024-01-15T17:15:14;98277.53;;;1.42;91.64
77149;BME280;66122;47.130;16.844;2024-01-15T17:25:17;98269.53;;;1.45;91.06
77149;BME280;66122;47.130;16.844;2024-01-15T17:35:20;98273.06;;;1.44;91.95
77149;BME280;66122;47.130;16.844;2024-01-15T17:45:22;98285.88;;;1.50;91.42
77149;BME280;66122;47.130;16.844;2024-01-15T17:55:26;98302.84;;;1.61;90.44
77149;BME280;66122;47.130;16.844;2024-01-15T18:05:29;98325.38;;;1.63;90.72
77149;BME280;66122;47.130;16.844;2024-01-15T18:15:32;98332.19;;;1.45;93.21
77149;BME280;66122;47.130;16.844;2024-01-15T18:25:35;98349.50;;;1.26;94.45
77149;BME280;66122;47.130;16.844;2024-01-15T18:35:38;98353.28;;;0.96;97.20
77149;BME280;66122;47.130;16.844;2024-01-15T18:45:41;98385.38;;;0.98;97.79
77149;BME280;66122;47.130;16.844;2024-01-15T18:55:43;98432.81;;;0.84;98.13
77149;BME280;66122;47.130;16.844;2024-01-15T19:05:46;98454.00;;;0.75;98.81
77149;BME280;66122;47.130;16.844;2024-01-15T19:15:49;98460.38;;;0.66;99.16
77149;BME280;66122;47.130;16.844;2024-01-15T19:25:52;98474.03;;;0.50;100.00
77149;BME280;66122;47.130;16.844;2024-01-15T19:35:56;98471.88;;;0.36;100.00
77149;BME280;66122;47.130;16.844;2024-01-15T19:46:01;98488.09;;;0.44;100.00
77149;BME280;66122;47.130;16.844;2024-01-15T19:56:04;98481.34;;;0.63;99.58
77149;BME280;66122;47.130;16.844;2024-01-15T20:06:07;98454.66;;;0.57;99.53
77149;BME280;66122;47.130;16.844;2024-01-15T20:16:14;98453.00;;;0.54;100.00
77149;BME280;66122;47.130;16.844;2024-01-15T20:26:17;98459.38;;;0.70;99.43
77149;BME280;66122;47.130;16.844;2024-01-15T20:36:20;98470.88;;;0.65;100.00
77149;BME280;66122;47.130;16.844;2024-01-15T20:46:24;98478.59;;;0.43;100.00
77149;BME280;66122;47.130;16.844;2024-01-15T20:56:27;98483.97;;;0.37;100.00
77149;BME280;66122;47.130;16.844;2024-01-15T21:06:29;98506.66;;;0.35;100.00
77149;BME280;66122;47.130;16.844;2024-01-15T21:16:33;98520.38;;;0.40;100.00
77149;BME280;66122;47.130;16.844;2024-01-15T21:26:36;98544.22;;;0.28;100.00
77149;BME280;66122;47.130;16.844;2024-01-15T21:36:39;98559.75;;;0.03;100.00
77149;BME280;66122;47.130;16.844;2024-01-15T21:46:42;98567.09;;;-0.10;100.00
77149;BME280;66122;47.130;16.844;2024-01-15T21:56:44;98546.94;;;-0.31;100.00
77149;BME280;66122;47.130;16.844;2024-01-15T22:06:47;98565.09;;;-0.59;100.00
77149;BME280;66122;47.130;16.844;2024-01-15T22:16:49;98580.31;;;-0.76;100.00
77149;BME280;66122;47.130;16.844;2024-01-15T22:26:52;98597.13;;;-0.88;100.00
77149;BME280;66122;47.130;16.844;2024-01-15T22:36:55;98607.13;;;-0.74;100.00
77149;BME280;66122;47.130;16.844;2024-01-15T22:46:58;98620.72;;;-0.95;100.00
77149;BME280;66122;47.130;16.844;2024-01-15T22:57:00;98654.53;;;-0.97;100.00
77149;BME280;66122;47.130;16.844;2024-01-15T23:07:03;98677.94;;;-1.31;100.00
77149;BME280;66122;47.130;16.844;2024-01-15T23:17:06;98691.78;;;-1.30;100.00
77149;BME280;66122;47.130;16.844;2024-01-15T23:27:08;98688.75;;;-1.13;100.00
77149;BME280;66122;47.130;16.844;2024-01-15T23:37:12;98701.34;;;-0.97;100.00
77149;BME280;66122;47.130;16.844;2024-01-15T23:47:14;98702.22;;;-0.98;100.00
77149;BME280;66122;47.130;16.844;2024-01-15T23:57:17;98746.78;;;-1.13;100.00
